createdAt,value
2022-10-06T00:02:25.513Z,14.50
2022-10-06T00:04:52.236Z,14.40
2022-10-06T00:07:19.015Z,14.30
2022-10-06T00:09:45.703Z,14.30
2022-10-06T00:12:12.394Z,14.20
2022-10-06T00:14:39.075Z,14.20
2022-10-06T00:17:05.959Z,14.10
2022-10-06T00:19:33.035Z,14.10
2022-10-06T00:21:59.759Z,14.00
2022-10-06T00:24:27.196Z,14.00
2022-10-06T00:26:53.982Z,14.00
2022-10-06T00:29:20.665Z,14.00
2022-10-06T00:31:47.404Z,13.90
2022-10-06T00:34:20.591Z,13.90
2022-10-06T00:36:47.380Z,13.90
2022-10-06T00:39:14.144Z,13.90
2022-10-06T00:41:40.897Z,13.80
2022-10-06T00:44:07.670Z,13.80
2022-10-06T00:46:46.219Z,13.80
2022-10-06T00:49:21.279Z,13.80
2022-10-06T00:51:52.140Z,13.80
2022-10-06T00:54:19.882Z,13.70
2022-10-06T00:56:47.265Z,13.70
2022-10-06T00:59:17.365Z,13.70
2022-10-06T01:02:04.190Z,13.60
2022-10-06T01:04:33.641Z,13.60
2022-10-06T01:07:01.043Z,13.60
2022-10-06T01:09:28.980Z,13.60
2022-10-06T01:11:59.771Z,13.50
2022-10-06T01:14:27.767Z,13.50
2022-10-06T01:17:07.610Z,13.40
2022-10-06T01:19:47.727Z,13.50
2022-10-06T01:22:17.091Z,13.50
2022-10-06T01:24:46.697Z,13.40
2022-10-06T01:27:15.858Z,13.30
2022-10-06T01:29:42.818Z,13.40
2022-10-06T01:32:09.900Z,13.40
2022-10-06T01:34:36.784Z,13.40
2022-10-06T01:37:03.528Z,13.40
2022-10-06T01:39:30.231Z,13.40
2022-10-06T01:41:56.939Z,13.40
2022-10-06T01:44:23.668Z,13.30
2022-10-06T01:46:50.397Z,13.30
2022-10-06T01:49:17.098Z,13.30
2022-10-06T01:51:46.726Z,13.30
2022-10-06T01:54:14.823Z,13.20
2022-10-06T01:56:41.565Z,13.10
2022-10-06T01:59:08.324Z,13.10
2022-10-06T02:01:35.786Z,13.10
2022-10-06T02:04:02.692Z,13.20
2022-10-06T02:06:29.609Z,13.10
2022-10-06T02:08:56.398Z,13.10
2022-10-06T02:11:23.170Z,13.10
2022-10-06T02:13:49.858Z,13.00
2022-10-06T02:16:16.633Z,13.10
2022-10-06T02:18:43.524Z,13.10
2022-10-06T02:21:21.734Z,13.10
2022-10-06T02:23:48.780Z,13.00
2022-10-06T02:26:17.557Z,13.00
2022-10-06T02:28:44.934Z,13.00
2022-10-06T02:31:11.823Z,13.00
2022-10-06T02:33:39.837Z,12.90
2022-10-06T02:36:08.239Z,12.90
2022-10-06T02:38:35.484Z,12.90
2022-10-06T02:41:02.350Z,13.00
2022-10-06T02:43:31.526Z,13.00
2022-10-06T02:46:04.297Z,13.00
2022-10-06T02:48:31.692Z,13.00
2022-10-06T02:51:01.150Z,12.90
2022-10-06T02:53:28.822Z,12.90
2022-10-06T02:56:00.703Z,12.90
2022-10-06T02:58:30.098Z,12.90
2022-10-06T03:01:05.043Z,12.80
2022-10-06T03:03:34.846Z,12.80
2022-10-06T03:06:06.552Z,12.70
2022-10-06T03:08:33.767Z,12.70
2022-10-06T03:11:04.858Z,12.80
2022-10-06T03:13:31.650Z,12.80
2022-10-06T03:15:58.647Z,12.80
2022-10-06T03:18:25.941Z,12.80
2022-10-06T03:20:53.990Z,12.80
2022-10-06T03:23:20.782Z,12.80
2022-10-06T03:25:56.648Z,12.80
2022-10-06T03:28:23.687Z,12.80
2022-10-06T03:30:50.496Z,12.70
2022-10-06T03:33:17.212Z,12.70
2022-10-06T03:35:43.913Z,12.70
2022-10-06T03:38:10.586Z,12.70
2022-10-06T03:40:37.246Z,12.60
2022-10-06T03:43:04.363Z,12.70
2022-10-06T03:45:31.081Z,12.60
2022-10-06T03:47:58.289Z,12.60
2022-10-06T03:50:24.979Z,12.60
2022-10-06T03:52:52.397Z,12.60
2022-10-06T03:55:19.511Z,12.50
2022-10-06T03:57:46.251Z,12.50
2022-10-06T04:00:13.665Z,12.40
2022-10-06T04:02:40.434Z,12.40
2022-10-06T04:05:07.678Z,12.40
2022-10-06T04:07:34.355Z,12.50
2022-10-06T04:10:01.029Z,12.50
2022-10-06T04:12:27.962Z,12.40
2022-10-06T04:14:59.863Z,12.40
2022-10-06T04:17:26.900Z,12.50
2022-10-06T04:19:53.589Z,12.40
2022-10-06T04:22:20.295Z,12.40
2022-10-06T04:24:46.954Z,12.30
2022-10-06T04:27:28.725Z,12.20
2022-10-06T04:29:56.322Z,12.20
2022-10-06T04:32:23.146Z,12.10
2022-10-06T04:34:49.921Z,12.10
2022-10-06T04:37:16.576Z,12.10
2022-10-06T04:39:43.290Z,12.10
2022-10-06T04:42:10.013Z,12.10
2022-10-06T04:44:36.834Z,12.10
2022-10-06T04:47:04.215Z,12.00
2022-10-06T04:49:31.694Z,12.00
2022-10-06T04:51:58.384Z,12.00
2022-10-06T04:54:26.427Z,11.90
2022-10-06T04:56:54.842Z,11.90
2022-10-06T04:59:41.477Z,11.80
2022-10-06T05:02:08.239Z,11.80
2022-10-06T05:04:35.497Z,11.80
2022-10-06T05:07:02.294Z,11.90
2022-10-06T05:09:29.350Z,11.90
2022-10-06T05:11:56.080Z,11.80
2022-10-06T05:14:23.240Z,11.70
2022-10-06T05:16:50.147Z,11.70
2022-10-06T05:19:17.013Z,11.70
2022-10-06T05:21:43.702Z,11.70
2022-10-06T05:24:10.420Z,11.70
2022-10-06T05:26:37.270Z,11.70
2022-10-06T05:29:04.634Z,11.70
2022-10-06T05:31:35.153Z,11.70
2022-10-06T05:34:02.046Z,11.70
2022-10-06T05:36:31.799Z,11.60
2022-10-06T05:38:59.129Z,11.60
2022-10-06T05:41:37.660Z,11.60
2022-10-06T05:44:04.779Z,11.60
2022-10-06T05:46:33.235Z,11.60
2022-10-06T05:49:03.113Z,11.60
2022-10-06T05:51:32.328Z,11.60
2022-10-06T05:53:59.901Z,11.60
2022-10-06T05:56:32.170Z,11.50
2022-10-06T05:59:00.039Z,11.50
2022-10-06T06:01:35.418Z,11.50
2022-10-06T06:04:04.349Z,11.40
2022-10-06T06:06:33.946Z,11.40
2022-10-06T06:09:12.560Z,11.40
2022-10-06T06:11:42.447Z,11.40
2022-10-06T06:14:14.658Z,11.40
2022-10-06T06:16:42.712Z,11.40
2022-10-06T06:19:11.294Z,11.40
2022-10-06T06:21:38.361Z,11.40
2022-10-06T06:24:05.555Z,11.40
2022-10-06T06:26:34.459Z,11.30
2022-10-06T06:29:03.930Z,11.40
2022-10-06T06:31:33.823Z,11.40
2022-10-06T06:34:02.777Z,11.50
2022-10-06T06:36:35.866Z,11.40
2022-10-06T06:39:08.367Z,11.50
2022-10-06T06:41:38.042Z,11.50
2022-10-06T06:44:06.809Z,11.60
2022-10-06T06:49:05.581Z,11.60
2022-10-06T06:51:37.583Z,11.60
2022-10-06T06:54:05.141Z,11.60
2022-10-06T06:56:36.729Z,11.70
2022-10-06T06:59:08.882Z,11.70
2022-10-06T07:01:36.057Z,11.80
2022-10-06T07:04:03.635Z,11.90
2022-10-06T07:06:31.200Z,11.90
2022-10-06T07:08:59.741Z,12.00
2022-10-06T07:11:32.689Z,12.10
2022-10-06T07:14:03.076Z,12.10
2022-10-06T07:16:50.178Z,12.20
2022-10-06T07:19:37.328Z,12.20
2022-10-06T07:22:33.852Z,12.30
2022-10-06T07:25:12.808Z,12.40
2022-10-06T07:27:44.828Z,12.40
2022-10-06T07:30:27.418Z,12.50
2022-10-06T07:32:54.960Z,12.50
2022-10-06T07:35:22.950Z,12.60
2022-10-06T07:37:50.902Z,12.70
2022-10-06T07:40:18.522Z,12.80
2022-10-06T07:42:48.512Z,12.90
2022-10-06T07:45:39.850Z,13.00
2022-10-06T07:48:10.382Z,13.00
2022-10-06T07:50:40.995Z,13.10
2022-10-06T07:53:09.102Z,13.20
2022-10-06T07:55:40.192Z,13.20
2022-10-06T07:58:15.196Z,13.20
2022-10-06T08:00:43.068Z,13.30
2022-10-06T08:03:11.816Z,13.40
2022-10-06T08:05:41.439Z,13.40
2022-10-06T08:08:08.217Z,13.40
2022-10-06T08:10:35.002Z,13.50
2022-10-06T08:13:05.313Z,13.60
2022-10-06T08:15:32.176Z,13.60
2022-10-06T08:18:06.245Z,13.80
2022-10-06T08:20:40.403Z,13.80
2022-10-06T08:23:08.626Z,13.80
2022-10-06T08:25:42.511Z,13.80
2022-10-06T08:28:10.887Z,13.90
2022-10-06T08:30:37.915Z,14.00
2022-10-06T08:33:05.567Z,14.00
2022-10-06T08:35:33.305Z,14.20
2022-10-06T08:37:59.980Z,14.30
2022-10-06T08:40:28.588Z,14.30
2022-10-06T08:42:58.236Z,14.40
2022-10-06T08:45:37.663Z,14.40
2022-10-06T08:48:10.153Z,14.50
2022-10-06T08:51:00.601Z,14.70
2022-10-06T08:53:46.906Z,14.80
2022-10-06T08:56:31.435Z,14.90
2022-10-06T08:59:04.199Z,15.00
2022-10-06T09:01:44.966Z,15.00
2022-10-06T09:04:23.206Z,15.20
2022-10-06T09:07:05.558Z,15.30
2022-10-06T09:09:48.154Z,15.50
2022-10-06T09:12:27.778Z,15.70
2022-10-06T09:15:06.282Z,15.90
2022-10-06T09:17:41.145Z,16.00
2022-10-06T09:20:25.737Z,16.00
2022-10-06T09:22:56.381Z,16.10
2022-10-06T09:25:28.781Z,16.20
2022-10-06T09:27:58.439Z,16.40
2022-10-06T09:30:26.064Z,16.50
2022-10-06T09:33:04.644Z,16.60
2022-10-06T09:35:32.711Z,16.70
2022-10-06T09:38:08.290Z,16.70
2022-10-06T09:40:40.415Z,16.70
2022-10-06T09:43:38.369Z,16.70
2022-10-06T09:46:28.388Z,16.90
2022-10-06T09:49:19.269Z,17.10
2022-10-06T09:52:18.337Z,17.10
2022-10-06T09:54:45.207Z,17.30
2022-10-06T09:57:25.514Z,17.30
2022-10-06T09:59:53.017Z,17.30
2022-10-06T10:02:41.115Z,17.40
2022-10-06T10:05:22.480Z,17.60
2022-10-06T10:08:04.514Z,17.70
2022-10-06T10:10:31.477Z,17.80
2022-10-06T10:13:00.093Z,17.80
2022-10-06T10:15:54.124Z,17.70
2022-10-06T10:18:27.140Z,17.70
2022-10-06T10:20:59.842Z,17.70
2022-10-06T10:23:34.304Z,17.80
2022-10-06T10:26:09.835Z,18.10
2022-10-06T10:29:04.591Z,18.10
2022-10-06T10:31:49.815Z,18.20
2022-10-06T10:34:50.614Z,18.10
2022-10-06T10:37:59.336Z,18.10
2022-10-06T10:40:37.298Z,18.20
2022-10-06T10:43:22.272Z,18.30
2022-10-06T10:46:08.499Z,18.40
2022-10-06T10:48:57.072Z,18.40
2022-10-06T10:51:50.606Z,18.50
2022-10-06T10:54:25.084Z,18.40
2022-10-06T10:56:53.303Z,18.50
2022-10-06T10:59:34.121Z,18.60
2022-10-06T11:02:11.165Z,18.70
2022-10-06T11:04:43.425Z,18.80
2022-10-06T11:07:21.188Z,19.00
2022-10-06T11:09:56.537Z,18.90
2022-10-06T11:12:43.459Z,18.90
2022-10-06T11:15:18.966Z,18.90
2022-10-06T11:17:50.159Z,18.70
2022-10-06T11:20:35.015Z,18.70
2022-10-06T11:23:21.434Z,18.80
2022-10-06T11:26:01.094Z,18.90
2022-10-06T11:28:31.572Z,19.00
2022-10-06T11:31:12.790Z,19.10
2022-10-06T11:33:46.941Z,19.10
2022-10-06T11:36:28.825Z,18.90
2022-10-06T11:39:02.985Z,18.90
2022-10-06T11:41:37.081Z,18.80
2022-10-06T11:44:26.304Z,19.00
2022-10-06T11:46:57.933Z,19.10
2022-10-06T11:49:32.526Z,19.40
2022-10-06T11:52:11.298Z,19.60
2022-10-06T11:54:51.539Z,19.70
2022-10-06T11:57:29.326Z,19.90
2022-10-06T12:00:15.511Z,19.80
2022-10-06T12:02:44.018Z,19.90
2022-10-06T12:05:54.057Z,19.70
2022-10-06T12:08:08.659Z,19.60
2022-10-06T12:10:35.594Z,19.60
2022-10-06T12:14:01.608Z,19.40
2022-10-06T12:17:08.369Z,19.10
2022-10-06T12:19:36.809Z,19.00
2022-10-06T12:22:27.661Z,18.90
2022-10-06T12:25:06.262Z,18.80
2022-10-06T12:27:47.891Z,19.00
2022-10-06T12:30:19.470Z,19.10
2022-10-06T12:32:55.460Z,19.10
2022-10-06T12:35:30.341Z,19.20
2022-10-06T12:38:04.554Z,19.10
2022-10-06T12:40:49.477Z,19.20
2022-10-06T12:43:18.933Z,19.40
2022-10-06T12:46:00.600Z,19.60
2022-10-06T12:48:55.451Z,19.70
2022-10-06T12:51:22.199Z,19.90
2022-10-06T12:54:04.417Z,19.70
2022-10-06T12:56:38.052Z,19.80
2022-10-06T12:59:28.105Z,19.50
2022-10-06T13:02:17.550Z,19.50
2022-10-06T13:04:49.377Z,19.60
2022-10-06T13:07:22.679Z,19.60
2022-10-06T13:09:55.659Z,19.60
2022-10-06T13:12:30.023Z,19.70
2022-10-06T13:15:18.898Z,19.70
2022-10-06T13:17:50.533Z,19.50
2022-10-06T13:20:51.141Z,19.50
2022-10-06T13:23:31.925Z,19.80
2022-10-06T13:26:04.883Z,19.80
2022-10-06T13:28:43.858Z,19.80
2022-10-06T13:31:33.846Z,19.80
2022-10-06T13:34:02.318Z,19.80
2022-10-06T13:36:30.866Z,19.70
2022-10-06T13:38:58.223Z,19.50
2022-10-06T13:41:38.153Z,19.60
2022-10-06T13:44:24.852Z,19.50
2022-10-06T13:46:58.415Z,19.60
2022-10-06T13:49:33.186Z,19.50
2022-10-06T13:52:08.760Z,19.50
2022-10-06T13:54:41.810Z,19.60
2022-10-06T13:57:36.560Z,19.50
2022-10-06T14:00:17.366Z,19.50
2022-10-06T14:02:49.485Z,19.50
2022-10-06T14:05:38.189Z,19.40
2022-10-06T14:08:11.064Z,19.40
2022-10-06T14:10:40.804Z,19.30
2022-10-06T14:13:20.514Z,19.30
2022-10-06T14:16:06.116Z,19.10
2022-10-06T14:18:45.110Z,18.90
2022-10-06T14:21:37.696Z,18.90
2022-10-06T14:24:16.665Z,19.00
2022-10-06T14:26:45.182Z,19.00
2022-10-06T14:29:14.169Z,19.00
2022-10-06T14:31:41.085Z,19.10
2022-10-06T14:34:14.861Z,19.00
2022-10-06T14:36:46.499Z,19.10
2022-10-06T14:39:14.603Z,19.00
2022-10-06T14:41:41.464Z,19.00
2022-10-06T14:44:11.471Z,18.90
2022-10-06T14:46:41.250Z,18.80
2022-10-06T14:49:09.954Z,18.80
2022-10-06T14:51:38.145Z,18.80
2022-10-06T14:54:06.288Z,18.80
2022-10-06T14:56:36.490Z,18.60
2022-10-06T14:59:06.576Z,18.50
2022-10-06T15:01:38.278Z,18.50
2022-10-06T15:04:27.510Z,18.50
2022-10-06T15:07:13.331Z,18.50
2022-10-06T15:09:40.058Z,18.40
2022-10-06T15:12:07.211Z,18.30
2022-10-06T15:14:39.519Z,18.30
2022-10-06T15:17:06.555Z,18.20
2022-10-06T15:19:34.335Z,18.30
2022-10-06T15:22:01.393Z,18.10
2022-10-06T15:24:28.480Z,18.10
2022-10-06T15:27:13.921Z,18.00
2022-10-06T15:29:40.752Z,18.00
2022-10-06T15:32:08.186Z,18.10
2022-10-06T15:34:37.470Z,18.10
2022-10-06T15:37:04.951Z,18.10
2022-10-06T15:39:36.343Z,18.10
2022-10-06T15:42:03.289Z,18.00
2022-10-06T15:44:34.428Z,17.90
2022-10-06T15:47:01.848Z,17.80
2022-10-06T15:49:37.951Z,17.70
2022-10-06T15:52:05.281Z,17.70
2022-10-06T15:54:41.019Z,17.70
2022-10-06T15:57:10.015Z,17.70
2022-10-06T15:59:37.135Z,17.60
2022-10-06T16:02:08.601Z,17.60
2022-10-06T16:04:40.557Z,17.50
2022-10-06T16:07:16.336Z,17.40
2022-10-06T16:09:50.861Z,17.40
2022-10-06T16:12:22.886Z,17.20
2022-10-06T16:14:49.683Z,17.20
2022-10-06T16:17:17.579Z,17.10
2022-10-06T16:19:44.744Z,17.10
2022-10-06T16:22:14.598Z,17.00
2022-10-06T16:24:41.703Z,16.90
2022-10-06T16:27:13.197Z,16.80
2022-10-06T16:29:40.570Z,16.80
2022-10-06T16:32:07.222Z,16.60
2022-10-06T16:34:34.143Z,16.60
2022-10-06T16:37:00.935Z,16.60
2022-10-06T16:39:27.598Z,16.50
2022-10-06T16:41:54.629Z,16.40
2022-10-06T16:46:49.342Z,16.20
2022-10-06T16:49:16.257Z,16.00
2022-10-06T16:51:46.003Z,15.90
2022-10-06T16:54:14.717Z,15.80
2022-10-06T16:56:47.193Z,15.60
2022-10-06T16:59:18.942Z,15.50
2022-10-06T17:01:47.104Z,15.40
2022-10-06T17:04:21.930Z,15.20
2022-10-06T17:06:56.909Z,15.20
2022-10-06T17:09:26.243Z,15.00
2022-10-06T17:11:58.392Z,14.90
2022-10-06T17:14:26.265Z,14.70
2022-10-06T17:16:54.496Z,14.60
2022-10-06T17:19:22.879Z,14.40
2022-10-06T17:21:55.720Z,14.30
2022-10-06T17:24:27.676Z,14.20
2022-10-06T17:26:54.676Z,14.00
2022-10-06T17:29:22.743Z,13.90
2022-10-06T17:31:53.246Z,13.80
2022-10-06T17:34:22.914Z,13.70
2022-10-06T17:36:52.346Z,13.60
2022-10-06T17:39:21.358Z,13.50
2022-10-06T17:41:50.302Z,13.40
2022-10-06T17:44:22.385Z,13.30
2022-10-06T17:46:51.866Z,13.20
2022-10-06T17:49:20.724Z,13.10
2022-10-06T17:51:48.611Z,13.00
2022-10-06T17:54:19.056Z,12.90
2022-10-06T17:56:50.872Z,12.80
2022-10-06T17:59:23.192Z,12.70
2022-10-06T18:01:51.710Z,12.70
2022-10-06T18:04:19.539Z,12.60
2022-10-06T18:06:47.589Z,12.50
2022-10-06T18:09:16.495Z,12.40
2022-10-06T18:11:47.872Z,12.30
2022-10-06T18:14:18.328Z,12.20
2022-10-06T18:16:50.894Z,12.20
2022-10-06T18:19:26.488Z,12.10
2022-10-06T18:21:56.429Z,12.00
2022-10-06T18:24:26.102Z,12.00
2022-10-06T18:26:55.194Z,11.80
2022-10-06T18:29:28.927Z,11.70
2022-10-06T18:32:01.338Z,11.70
2022-10-06T18:37:23.592Z,11.50
2022-10-06T18:39:50.266Z,11.40
2022-10-06T18:42:17.672Z,11.30
2022-10-06T18:45:02.835Z,11.30
2022-10-06T18:47:48.761Z,11.20
2022-10-06T18:50:16.491Z,11.20
2022-10-06T18:52:43.558Z,11.10
2022-10-06T18:55:10.294Z,11.00
2022-10-06T18:57:36.967Z,11.00
2022-10-06T19:00:04.384Z,10.90
2022-10-06T19:02:32.310Z,10.80
2022-10-06T19:04:59.091Z,10.80
2022-10-06T19:07:30.658Z,10.70
2022-10-06T19:09:57.496Z,10.70
2022-10-06T19:12:24.292Z,10.60
2022-10-06T19:14:51.322Z,10.60
2022-10-06T19:17:18.126Z,10.50
2022-10-06T19:19:51.714Z,10.50
2022-10-06T19:22:21.487Z,10.40
2022-10-06T19:24:48.510Z,10.40
2022-10-06T19:27:20.431Z,10.40
2022-10-06T19:29:51.882Z,10.30
2022-10-06T19:32:21.932Z,10.30
2022-10-06T19:34:48.706Z,10.20
2022-10-06T19:37:15.765Z,10.20
2022-10-06T19:39:45.266Z,10.10
2022-10-06T19:42:33.138Z,10.10
2022-10-06T19:45:01.080Z,10.00
2022-10-06T19:47:28.528Z,10.00
2022-10-06T19:49:58.893Z,9.90
2022-10-06T19:52:27.773Z,9.90
2022-10-06T19:54:54.842Z,9.90
2022-10-06T19:57:21.511Z,9.80
2022-10-06T19:59:48.241Z,9.70
2022-10-06T20:02:14.916Z,9.70
2022-10-06T20:04:41.674Z,9.70
2022-10-06T20:07:09.328Z,9.60
2022-10-06T20:09:36.062Z,9.60
2022-10-06T20:12:03.320Z,9.60
2022-10-06T20:14:30.147Z,9.50
2022-10-06T20:16:57.430Z,9.50
2022-10-06T20:19:25.521Z,9.50
2022-10-06T20:21:52.960Z,9.40
2022-10-06T20:24:23.103Z,9.40
2022-10-06T20:26:51.163Z,9.30
2022-10-06T20:29:26.488Z,9.30
2022-10-06T20:31:55.691Z,9.30
2022-10-06T20:34:25.472Z,9.30
2022-10-06T20:36:55.936Z,9.20
2022-10-06T20:39:42.226Z,9.20
2022-10-06T20:42:14.941Z,9.10
2022-10-06T20:44:43.353Z,9.10
2022-10-06T20:47:11.236Z,9.00
2022-10-06T20:49:38.317Z,9.00
2022-10-06T20:52:06.109Z,9.00
2022-10-06T20:54:35.699Z,8.90
2022-10-06T20:57:05.037Z,8.90
2022-10-06T20:59:35.065Z,8.80
2022-10-06T21:02:02.500Z,8.80
2022-10-06T21:04:29.556Z,8.80
2022-10-06T21:06:57.459Z,8.80
2022-10-06T21:09:24.903Z,8.80
2022-10-06T21:11:52.700Z,8.80
2022-10-06T21:14:20.045Z,8.80
2022-10-06T21:16:48.400Z,8.70
2022-10-06T21:19:17.581Z,8.70
2022-10-06T21:21:49.991Z,8.70
2022-10-06T21:24:17.166Z,8.70
2022-10-06T21:26:44.146Z,8.60
2022-10-06T21:29:14.654Z,8.60
2022-10-06T21:31:42.463Z,8.60
2022-10-06T21:34:10.619Z,8.60
2022-10-06T21:36:38.363Z,8.50
2022-10-06T21:39:06.102Z,8.50
2022-10-06T21:41:38.876Z,8.40
2022-10-06T21:44:17.305Z,8.40
2022-10-06T21:46:52.747Z,8.50
2022-10-06T21:49:21.637Z,8.40
2022-10-06T21:51:51.120Z,8.40
2022-10-06T21:54:19.334Z,8.40
2022-10-06T21:56:46.630Z,8.40
2022-10-06T21:59:13.746Z,8.30
2022-10-06T22:01:43.258Z,8.30
2022-10-06T22:04:12.051Z,8.30
2022-10-06T22:06:38.935Z,8.30
2022-10-06T22:09:07.972Z,8.30
2022-10-06T22:11:37.366Z,8.40
2022-10-06T22:14:06.728Z,8.40
2022-10-06T22:16:35.260Z,8.40
2022-10-06T22:19:04.506Z,8.40
2022-10-06T22:21:33.929Z,8.40
2022-10-06T22:24:03.757Z,8.30
2022-10-06T22:26:33.026Z,8.40
2022-10-06T22:29:00.490Z,8.40
2022-10-06T22:31:28.422Z,8.40
2022-10-06T22:33:58.220Z,8.30
2022-10-06T22:36:26.403Z,8.30
2022-10-06T22:38:54.691Z,8.20
2022-10-06T22:41:21.931Z,8.20
2022-10-06T22:43:49.036Z,8.20
2022-10-06T22:46:16.115Z,8.20
2022-10-06T22:48:43.407Z,8.30
2022-10-06T22:51:10.319Z,8.40
2022-10-06T22:53:37.213Z,8.40
2022-10-06T22:56:04.492Z,8.40
2022-10-06T22:58:31.517Z,8.50
2022-10-06T23:00:58.897Z,8.50
2022-10-06T23:03:26.150Z,8.60
2022-10-06T23:05:58.672Z,8.60
2022-10-06T23:08:31.270Z,8.60
2022-10-06T23:11:11.476Z,8.70
2022-10-06T23:13:38.633Z,8.70
2022-10-06T23:16:08.414Z,8.80
2022-10-06T23:18:38.031Z,8.80
2022-10-06T23:21:04.959Z,8.90
2022-10-06T23:23:32.674Z,8.90
2022-10-06T23:26:11.320Z,8.90
2022-10-06T23:28:38.644Z,8.90
2022-10-06T23:31:07.481Z,8.90
2022-10-06T23:33:34.991Z,9.00
2022-10-06T23:36:07.858Z,9.00
2022-10-06T23:38:35.734Z,9.10
2022-10-06T23:41:02.748Z,9.00
2022-10-06T23:43:29.793Z,9.00
2022-10-06T23:45:57.044Z,9.00
2022-10-06T23:48:24.564Z,9.00
2022-10-06T23:51:05.212Z,9.00
2022-10-06T23:53:32.969Z,9.00
2022-10-06T23:55:59.864Z,9.00
2022-10-06T23:58:27.880Z,8.90
